NCAR-RAP Real-Time Weather Data

Output produced by METARs form (17 December 2018  08:01 UTC)
found at http://weather.rap.ucar.edu/surface/
 
KGTF 170753Z 20018G27KT 10SM CLR 08/M09 A2985 RMK AO2 PK WND 20029/0702 SLP115 T00781089
KGTF 170653Z 19017KT 10SM CLR 09/M09 A2985 RMK AO2 SLP115 T00891089 401331028
KGTF 170553Z 20014KT 10SM CLR 08/M09 A2986 RMK AO2 SLP116 T00831089 10100 20033 56013
KGTF 170453Z 19015KT 10SM CLR 07/M08 A2986 RMK AO2 SLP124 T00721083
KGTF 170353Z 18014KT 10SM CLR 08/M09 A2988 RMK AO2 SLP135 T00781089
KGTF 170253Z 18008KT 10SM CLR 05/M09 A2990 RMK AO2 SLP147 T00501089 58005
KGTF 170153Z 17011KT 10SM CLR 06/M08 A2991 RMK AO2 SLP152 T00561078
KGTF 170053Z 23003KT 10SM CLR 07/M08 A2991 RMK AO2 SLP155 T00721083
KGTF 162353Z 17008KT 10SM CLR 08/M07 A2992 RMK AO2 SLP152 T00831072 10133 20061 56008
KGTF 162253Z 17005KT 10SM CLR 11/M07 A2993 RMK AO2 SLP150 T01061067
KGTF 162153Z 19011KT 10SM CLR 12/M07 A2993 RMK AO2 SLP151 T01221067
KGTF 162053Z 18010G22KT 10SM CLR 12/M06 A2994 RMK AO2 SLP157 T01171061 58026